createdAt,value
2022-09-12T00:13:41.318Z,78.59
2022-09-12T00:28:28.734Z,78.01
2022-09-12T00:43:39.112Z,77.17
2022-09-12T00:58:35.162Z,76.41
2022-09-12T01:28:45.327Z,74.82
2022-09-12T01:43:49.902Z,75.68
2022-09-12T01:58:45.256Z,74.68
2022-09-12T02:13:46.285Z,75.73
2022-09-12T02:28:40.677Z,74.56
2022-09-12T02:43:31.318Z,75.65
2022-09-12T02:58:22.089Z,76.31
2022-09-12T03:13:34.163Z,77.01
2022-09-12T03:28:24.333Z,77.80
2022-09-12T03:43:15.933Z,78.38
2022-09-12T03:58:06.439Z,78.78
2022-09-12T04:12:58.074Z,79.82
2022-09-12T04:27:49.593Z,79.81
2022-09-12T04:42:40.851Z,80.74
2022-09-12T04:57:32.765Z,80.71
2022-09-12T05:12:24.110Z,81.16
2022-09-12T05:27:15.746Z,80.91
2022-09-12T05:42:06.549Z,82.08
2022-09-12T05:56:57.644Z,81.74
2022-09-12T06:11:49.063Z,81.94
2022-09-12T06:26:41.005Z,81.34
2022-09-12T06:41:34.484Z,80.54
2022-09-12T06:56:26.877Z,79.00
2022-09-12T07:11:19.098Z,77.66
2022-09-12T07:26:11.710Z,75.73
2022-09-12T07:41:19.632Z,74.60
2022-09-12T07:56:15.848Z,73.84
2022-09-12T08:11:08.756Z,72.97
2022-09-12T08:26:05.297Z,71.65
2022-09-12T08:40:52.294Z,72.13
2022-09-12T08:55:49.752Z,70.23
2022-09-12T09:10:47.397Z,69.16
2022-09-12T09:25:43.129Z,68.21
2022-09-12T09:40:56.766Z,66.41
2022-09-12T09:55:53.994Z,66.33
2022-09-12T10:11:16.598Z,65.60
2022-09-12T10:26:15.138Z,64.16
2022-09-12T10:41:07.511Z,63.53
2022-09-12T10:56:11.906Z,62.01
2022-09-12T11:11:11.281Z,61.83
2022-09-12T11:26:25.997Z,60.29
2022-09-12T11:41:23.657Z,58.16
2022-09-12T11:56:19.169Z,54.33
2022-09-12T12:11:14.605Z,50.94
2022-09-12T12:26:07.856Z,49.83
2022-09-12T12:41:18.582Z,47.54
2022-09-12T12:56:33.877Z,48.21
2022-09-12T13:11:31.643Z,47.03
2022-09-12T13:26:24.031Z,45.20
2022-09-12T13:41:40.357Z,43.70
2022-09-12T13:56:38.433Z,44.18
2022-09-12T14:11:32.048Z,42.31
2022-09-12T14:26:24.700Z,40.90
2022-09-12T14:41:21.260Z,40.13
2022-09-12T14:56:16.580Z,41.08
2022-09-12T15:11:09.627Z,40.62
2022-09-12T15:26:02.206Z,40.76
2022-09-12T15:40:52.761Z,40.93
2022-09-12T15:55:43.588Z,42.22
2022-09-12T16:10:34.644Z,42.33
2022-09-12T16:25:25.549Z,42.93
2022-09-12T16:40:17.654Z,42.64
2022-09-12T16:55:17.135Z,42.62
2022-09-12T17:40:58.012Z,46.18
2022-09-12T18:10:52.982Z,50.26
2022-09-12T18:41:31.422Z,56.62
2022-09-12T19:11:37.179Z,59.93
2022-09-12T19:26:28.254Z,60.88
2022-09-12T19:41:19.295Z,62.91
2022-09-12T19:56:10.154Z,63.73
2022-09-12T20:11:00.766Z,65.06
2022-09-12T20:25:51.774Z,66.07
2022-09-12T20:40:43.074Z,67.03
2022-09-12T20:55:34.039Z,67.80
2022-09-12T21:10:24.880Z,67.15
2022-09-12T21:25:16.803Z,68.65
2022-09-12T21:40:08.201Z,70.00
2022-09-12T21:54:59.331Z,69.83
2022-09-12T22:09:50.459Z,69.94
2022-09-12T22:24:41.639Z,70.84
2022-09-12T22:39:32.743Z,70.65
2022-09-12T22:54:23.691Z,71.63
2022-09-12T23:09:14.893Z,72.29
2022-09-12T23:24:06.007Z,72.46
2022-09-12T23:38:57.940Z,73.06
2022-09-12T23:53:49.887Z,73.94
